Washita River (Oklahoma), Dickson (07331000)

StateOklahomaCurrentGood (497 cfs)
RiverWashita RiverFlood - The river is flooding. Obstacles can be treacherous or deadly. The river should be avoided at this stage for casual trips and definitely for the inexperienced. Trips should be attempted only with protective gear and equipment.Flood(none)
Updated2019-10-14 2:30 (58 minutes ago)High - The river is high and potentially dangerous, especially for the young and / or inexperienced. Normal stream obstacles are sometimes difficult to navigate. Extended distances can be attempted, but canoe travel may not be advisable.High(none)
Discharge497 cfs (median: 478 cfs)Good - Conditions are ideal for a canoe or kayak. Boats typically will drag on fewer than one-quarter of riffles, if at all, and portages are unnecessary or rare. Normal float lengths can be attempted without a problem.Good120
Height7.91 feetLow - River is low but can still be floated. Some riffles are okay but most come with significant dragging and might need a portage. Float lengths should be reduced to accommodate low flow, dragging, and portages.Low(none)
TrendRising (falling over 24 hours)Poor - River is too low to float comfortably. Most or all riffles will drag or must be portaged and some obstacles (such as slick shelf rock) cause undue problems. Avoid the river at this stage for casual paddling trips.Poor(none)
USGSExternal icon USGS Site for Dickson (07331000)LocationExternal icon Google Maps

Trending Data

Plot Image
ObservationHeightDischargeMaximum
Discharge
Minimum
Discharge
Mean
Discharge
P05P10P20P25P50
(Median)
P75P80P90P95
2019-10-14 02:30 7.91 497 16900 (1982) 11 (1973) 1380 65 90 142 174 478 1200 1640 2870 8840
2019-10-14 01:30 7.90 491 16900 (1982) 11 (1973) 1380 65 90 142 174 478 1200 1640 2870 8840
2019-10-14 00:30 7.90 491 16900 (1982) 11 (1973) 1380 65 90 142 174 478 1200 1640 2870 8840
2019-10-13 23:30 7.90 491 21300 (1982) 11 (1973) 1650 65 84 132 180 515 1160 1740 3540 10400
2019-10-13 22:30 7.90 491 21300 (1982) 11 (1973) 1650 65 84 132 180 515 1160 1740 3540 10400
2019-10-13 21:30 7.91 497 21300 (1982) 11 (1973) 1650 65 84 132 180 515 1160 1740 3540 10400
2019-10-13 20:30 7.91 497 21300 (1982) 11 (1973) 1650 65 84 132 180 515 1160 1740 3540 10400
2019-10-13 19:30 7.92 503 21300 (1982) 11 (1973) 1650 65 84 132 180 515 1160 1740 3540 10400
2019-10-13 18:30 7.93 510 21300 (1982) 11 (1973) 1650 65 84 132 180 515 1160 1740 3540 10400
2019-10-13 17:30 7.93 510 21300 (1982) 11 (1973) 1650 65 84 132 180 515 1160 1740 3540 10400
2019-10-13 16:30 7.94 516 21300 (1982) 11 (1973) 1650 65 84 132 180 515 1160 1740 3540 10400
2019-10-13 15:30 7.95 522 21300 (1982) 11 (1973) 1650 65 84 132 180 515 1160 1740 3540 10400
2019-10-13 14:30 7.96 528 21300 (1982) 11 (1973) 1650 65 84 132 180 515 1160 1740 3540 10400
2019-10-13 13:30 7.97 535 21300 (1982) 11 (1973) 1650 65 84 132 180 515 1160 1740 3540 10400
2019-10-13 12:30 7.98 541 21300 (1982) 11 (1973) 1650 65 84 132 180 515 1160 1740 3540 10400
2019-10-13 11:30 7.98 541 21300 (1982) 11 (1973) 1650 65 84 132 180 515 1160 1740 3540 10400
2019-10-13 10:30 7.99 547 21300 (1982) 11 (1973) 1650 65 84 132 180 515 1160 1740 3540 10400
2019-10-13 09:30 7.98 541 21300 (1982) 11 (1973) 1650 65 84 132 180 515 1160 1740 3540 10400
2019-10-13 08:30 7.96 528 21300 (1982) 11 (1973) 1650 65 84 132 180 515 1160 1740 3540 10400
2019-10-13 07:30 7.96 528 21300 (1982) 11 (1973) 1650 65 84 132 180 515 1160 1740 3540 10400
2019-10-13 06:30 7.96 528 21300 (1982) 11 (1973) 1650 65 84 132 180 515 1160 1740 3540 10400
2019-10-13 05:30 7.95 522 21300 (1982) 11 (1973) 1650 65 84 132 180 515 1160 1740 3540 10400
2019-10-13 04:30 7.95 522 21300 (1982) 11 (1973) 1650 65 84 132 180 515 1160 1740 3540 10400
2019-10-13 03:30 7.94 516 21300 (1982) 11 (1973) 1650 65 84 132 180 515 1160 1740 3540 10400
2019-10-13 02:30 7.94 516 21300 (1982) 11 (1973) 1650 65 84 132 180 515 1160 1740 3540 10400
2019-10-13 01:30 7.93 510 21300 (1982) 11 (1973) 1650 65 84 132 180 515 1160 1740 3540 10400
2019-10-13 00:30 7.93 510 21300 (1982) 11 (1973) 1650 65 84 132 180 515 1160 1740 3540 10400
2019-10-12 23:30 7.93 510 10500 (1987) 12 (1973) 1240 70 84 142 193 542 1350 1590 4150 6260
2019-10-12 22:30 7.92 503 10500 (1987) 12 (1973) 1240 70 84 142 193 542 1350 1590 4150 6260
2019-10-12 21:30 7.92 503 10500 (1987) 12 (1973) 1240 70 84 142 193 542 1350 1590 4150 6260
2019-10-12 20:30 7.92 503 10500 (1987) 12 (1973) 1240 70 84 142 193 542 1350 1590 4150 6260
2019-10-12 19:30 7.92 503 10500 (1987) 12 (1973) 1240 70 84 142 193 542 1350 1590 4150 6260
2019-10-12 18:30 7.93 510 10500 (1987) 12 (1973) 1240 70 84 142 193 542 1350 1590 4150 6260
2019-10-12 17:30 7.93 510 10500 (1987) 12 (1973) 1240 70 84 142 193 542 1350 1590 4150 6260
2019-10-12 16:30 7.93 510 10500 (1987) 12 (1973) 1240 70 84 142 193 542 1350 1590 4150 6260
2019-10-12 15:30 7.94 516 10500 (1987) 12 (1973) 1240 70 84 142 193 542 1350 1590 4150 6260
2019-10-12 14:30 7.96 528 10500 (1987) 12 (1973) 1240 70 84 142 193 542 1350 1590 4150 6260
2019-10-12 13:30 7.96 528 10500 (1987) 12 (1973) 1240 70 84 142 193 542 1350 1590 4150 6260
2019-10-12 12:30 7.97 535 10500 (1987) 12 (1973) 1240 70 84 142 193 542 1350 1590 4150 6260
2019-10-12 11:30 7.98 541 10500 (1987) 12 (1973) 1240 70 84 142 193 542 1350 1590 4150 6260
2019-10-12 10:30 7.98 541 10500 (1987) 12 (1973) 1240 70 84 142 193 542 1350 1590 4150 6260
2019-10-12 09:30 7.97 535 10500 (1987) 12 (1973) 1240 70 84 142 193 542 1350 1590 4150 6260
2019-10-12 08:30 7.96 528 10500 (1987) 12 (1973) 1240 70 84 142 193 542 1350 1590 4150 6260
2019-10-12 07:30 7.95 522 10500 (1987) 12 (1973) 1240 70 84 142 193 542 1350 1590 4150 6260
2019-10-12 06:30 7.94 516 10500 (1987) 12 (1973) 1240 70 84 142 193 542 1350 1590 4150 6260
2019-10-12 05:30 7.94 516 10500 (1987) 12 (1973) 1240 70 84 142 193 542 1350 1590 4150 6260
2019-10-12 04:30 7.95 522 10500 (1987) 12 (1973) 1240 70 84 142 193 542 1350 1590 4150 6260
2019-10-12 03:30 7.95 522 10500 (1987) 12 (1973) 1240 70 84 142 193 542 1350 1590 4150 6260
2019-10-12 02:30 7.95 522 10500 (1987) 12 (1973) 1240 70 84 142 193 542 1350 1590 4150 6260
2019-10-12 01:30 7.95 522 10500 (1987) 12 (1973) 1240 70 84 142 193 542 1350 1590 4150 6260
2019-10-12 00:30 7.95 522 10500 (1987) 12 (1973) 1240 70 84 142 193 542 1350 1590 4150 6260
2019-10-11 23:30 7.95 522 11500 (1987) 13 (1973) 1400 74 86 126 155 524 1430 1560 6270 6870
2019-10-11 22:30 7.95 522 11500 (1987) 13 (1973) 1400 74 86 126 155 524 1430 1560 6270 6870
2019-10-11 21:30 7.95 522 11500 (1987) 13 (1973) 1400 74 86 126 155 524 1430 1560 6270 6870
2019-10-11 20:30 7.95 522 11500 (1987) 13 (1973) 1400 74 86 126 155 524 1430 1560 6270 6870
2019-10-11 19:30 7.96 528 11500 (1987) 13 (1973) 1400 74 86 126 155 524 1430 1560 6270 6870
2019-10-11 18:30 7.96 528 11500 (1987) 13 (1973) 1400 74 86 126 155 524 1430 1560 6270 6870
2019-10-11 17:30 7.97 535 11500 (1987) 13 (1973) 1400 74 86 126 155 524 1430 1560 6270 6870
2019-10-11 16:30 7.97 535 11500 (1987) 13 (1973) 1400 74 86 126 155 524 1430 1560 6270 6870
2019-10-11 15:30 7.95 522 11500 (1987) 13 (1973) 1400 74 86 126 155 524 1430 1560 6270 6870
2019-10-11 14:30 7.95 522 11500 (1987) 13 (1973) 1400 74 86 126 155 524 1430 1560 6270 6870
2019-10-11 13:30 7.95 522 11500 (1987) 13 (1973) 1400 74 86 126 155 524 1430 1560 6270 6870
2019-10-11 12:30 7.98 541 11500 (1987) 13 (1973) 1400 74 86 126 155 524 1430 1560 6270 6870
2019-10-11 11:30 7.99 547 11500 (1987) 13 (1973) 1400 74 86 126 155 524 1430 1560 6270 6870
2019-10-11 10:30 8.01 560 11500 (1987) 13 (1973) 1400 74 86 126 155 524 1430 1560 6270 6870
2019-10-11 09:30 8.05 584 11500 (1987) 13 (1973) 1400 74 86 126 155 524 1430 1560 6270 6870
2019-10-11 08:30 8.05 584 11500 (1987) 13 (1973) 1400 74 86 126 155 524 1430 1560 6270 6870
2019-10-11 07:30 8.06 591 11500 (1987) 13 (1973) 1400 74 86 126 155 524 1430 1560 6270 6870
2019-10-11 06:30 8.06 591 11500 (1987) 13 (1973) 1400 74 86 126 155 524 1430 1560 6270 6870
2019-10-11 05:30 8.06 591 11500 (1987) 13 (1973) 1400 74 86 126 155 524 1430 1560 6270 6870
2019-10-11 04:30 8.05 584 11500 (1987) 13 (1973) 1400 74 86 126 155 524 1430 1560 6270 6870
2019-10-11 03:30 8.06 591 11500 (1987) 13 (1973) 1400 74 86 126 155 524 1430 1560 6270 6870
2019-10-11 02:30 8.03 572 11500 (1987) 13 (1973) 1400 74 86 126 155 524 1430 1560 6270 6870
2019-10-11 01:30 8.05 584 11500 (1987) 13 (1973) 1400 74 86 126 155 524 1430 1560 6270 6870
2019-10-11 00:30 8.03 572 11500 (1987) 13 (1973) 1400 74 86 126 155 524 1430 1560 6270 6870
2019-10-10 23:30 7.99 547 14300 (1971) 14 (1973) 1330 39 83 131 164 523 1120 1350 2750 11300
2019-10-10 22:30 8.03 572 14300 (1971) 14 (1973) 1330 39 83 131 164 523 1120 1350 2750 11300
2019-10-10 21:30 7.99 547 14300 (1971) 14 (1973) 1330 39 83 131 164 523 1120 1350 2750 11300
2019-10-10 20:30 8.01 560 14300 (1971) 14 (1973) 1330 39 83 131 164 523 1120 1350 2750 11300
2019-10-10 19:30 8.00 554 14300 (1971) 14 (1973) 1330 39 83 131 164 523 1120 1350 2750 11300
2019-10-10 18:30 7.97 535 14300 (1971) 14 (1973) 1330 39 83 131 164 523 1120 1350 2750 11300
2019-10-10 17:30 7.98 541 14300 (1971) 14 (1973) 1330 39 83 131 164 523 1120 1350 2750 11300
2019-10-10 16:30 7.97 535 14300 (1971) 14 (1973) 1330 39 83 131 164 523 1120 1350 2750 11300
2019-10-10 15:30 7.96 528 14300 (1971) 14 (1973) 1330 39 83 131 164 523 1120 1350 2750 11300
2019-10-10 14:30 7.96 528 14300 (1971) 14 (1973) 1330 39 83 131 164 523 1120 1350 2750 11300
2019-10-10 13:30 7.96 528 14300 (1971) 14 (1973) 1330 39 83 131 164 523 1120 1350 2750 11300
2019-10-10 12:30 7.96 528 14300 (1971) 14 (1973) 1330 39 83 131 164 523 1120 1350 2750 11300
2019-10-10 11:30 7.96 528 14300 (1971) 14 (1973) 1330 39 83 131 164 523 1120 1350 2750 11300
2019-10-10 10:30 7.97 535 14300 (1971) 14 (1973) 1330 39 83 131 164 523 1120 1350 2750 11300
2019-10-10 09:30 7.97 535 14300 (1971) 14 (1973) 1330 39 83 131 164 523 1120 1350 2750 11300
2019-10-10 08:30 7.97 535 14300 (1971) 14 (1973) 1330 39 83 131 164 523 1120 1350 2750 11300
2019-10-10 07:30 7.97 535 14300 (1971) 14 (1973) 1330 39 83 131 164 523 1120 1350 2750 11300
2019-10-10 06:30 7.97 535 14300 (1971) 14 (1973) 1330 39 83 131 164 523 1120 1350 2750 11300
2019-10-10 05:30 7.98 541 14300 (1971) 14 (1973) 1330 39 83 131 164 523 1120 1350 2750 11300
2019-10-10 04:30 7.97 535 14300 (1971) 14 (1973) 1330 39 83 131 164 523 1120 1350 2750 11300
2019-10-10 03:30 7.97 535 14300 (1971) 14 (1973) 1330 39 83 131 164 523 1120 1350 2750 11300
2019-10-10 02:30 7.97 535 14300 (1971) 14 (1973) 1330 39 83 131 164 523 1120 1350 2750 11300
2019-10-10 01:30 7.96 528 14300 (1971) 14 (1973) 1330 39 83 131 164 523 1120 1350 2750 11300
2019-10-10 00:30 7.96 528 14300 (1971) 14 (1973) 1330 39 83 131 164 523 1120 1350 2750 11300
2019-10-09 22:30 7.96 528 42300 (1971) 16 (1973) 1730 41 81 110 152 422 1030 1200 2500 10000
2019-10-09 21:30 7.98 541 42300 (1971) 16 (1973) 1730 41 81 110 152 422 1030 1200 2500 10000
2019-10-09 20:30 7.98 541 42300 (1971) 16 (1973) 1730 41 81 110 152 422 1030 1200 2500 10000
2019-10-09 19:30 7.98 541 42300 (1971) 16 (1973) 1730 41 81 110 152 422 1030 1200 2500 10000
2019-10-09 18:30 7.99 547 42300 (1971) 16 (1973) 1730 41 81 110 152 422 1030 1200 2500 10000
2019-10-09 17:30 7.99 547 42300 (1971) 16 (1973) 1730 41 81 110 152 422 1030 1200 2500 10000
2019-10-09 16:30 7.99 547 42300 (1971) 16 (1973) 1730 41 81 110 152 422 1030 1200 2500 10000
2019-10-09 15:30 8.00 554 42300 (1971) 16 (1973) 1730 41 81 110 152 422 1030 1200 2500 10000
2019-10-09 14:30 8.01 560 42300 (1971) 16 (1973) 1730 41 81 110 152 422 1030 1200 2500 10000
2019-10-09 13:30 8.01 560 42300 (1971) 16 (1973) 1730 41 81 110 152 422 1030 1200 2500 10000
2019-10-09 12:30 8.02 566 42300 (1971) 16 (1973) 1730 41 81 110 152 422 1030 1200 2500 10000
2019-10-09 11:30 8.02 566 42300 (1971) 16 (1973) 1730 41 81 110 152 422 1030 1200 2500 10000
2019-10-09 10:30 8.02 566 42300 (1971) 16 (1973) 1730 41 81 110 152 422 1030 1200 2500 10000
2019-10-09 09:30 8.02 566 42300 (1971) 16 (1973) 1730 41 81 110 152 422 1030 1200 2500 10000
2019-10-09 08:30 8.02 566 42300 (1971) 16 (1973) 1730 41 81 110 152 422 1030 1200 2500 10000
2019-10-09 07:30 8.02 566 42300 (1971) 16 (1973) 1730 41 81 110 152 422 1030 1200 2500 10000
2019-10-09 06:30 8.02 566 42300 (1971) 16 (1973) 1730 41 81 110 152 422 1030 1200 2500 10000
2019-10-09 05:30 8.02 566 42300 (1971) 16 (1973) 1730 41 81 110 152 422 1030 1200 2500 10000
2019-10-09 04:30 8.03 572 42300 (1971) 16 (1973) 1730 41 81 110 152 422 1030 1200 2500 10000
2019-10-09 03:30 8.02 566 42300 (1971) 16 (1973) 1730 41 81 110 152 422 1030 1200 2500 10000
2019-10-09 02:30 8.02 566 42300 (1971) 16 (1973) 1730 41 81 110 152 422 1030 1200 2500 10000
2019-10-09 01:30 8.03 572 42300 (1971) 16 (1973) 1730 41 81 110 152 422 1030 1200 2500 10000
2019-10-09 00:30 8.02 566 42300 (1971) 16 (1973) 1730 41 81 110 152 422 1030 1200 2500 10000
2019-10-08 23:30 8.03 572 17900 (1971) 17 (1973) 1080 35 73 119 161 373 1050 1170 1860 3410
2019-10-08 22:30 8.03 572 17900 (1971) 17 (1973) 1080 35 73 119 161 373 1050 1170 1860 3410
2019-10-08 21:30 8.04 578 17900 (1971) 17 (1973) 1080 35 73 119 161 373 1050 1170 1860 3410
2019-10-08 20:30 8.04 578 17900 (1971) 17 (1973) 1080 35 73 119 161 373 1050 1170 1860 3410
2019-10-08 19:30 8.06 591 17900 (1971) 17 (1973) 1080 35 73 119 161 373 1050 1170 1860 3410
2019-10-08 18:30 8.07 597 17900 (1971) 17 (1973) 1080 35 73 119 161 373 1050 1170 1860 3410
2019-10-08 17:30 8.08 603 17900 (1971) 17 (1973) 1080 35 73 119 161 373 1050 1170 1860 3410
2019-10-08 16:30 8.09 609 17900 (1971) 17 (1973) 1080 35 73 119 161 373 1050 1170 1860 3410
2019-10-08 15:30 8.11 621 17900 (1971) 17 (1973) 1080 35 73 119 161 373 1050 1170 1860 3410
2019-10-08 14:30 8.12 628 17900 (1971) 17 (1973) 1080 35 73 119 161 373 1050 1170 1860 3410
2019-10-08 13:30 8.13 634 17900 (1971) 17 (1973) 1080 35 73 119 161 373 1050 1170 1860 3410
2019-10-08 12:30 8.14 640 17900 (1971) 17 (1973) 1080 35 73 119 161 373 1050 1170 1860 3410
2019-10-08 11:30 8.16 652 17900 (1971) 17 (1973) 1080 35 73 119 161 373 1050 1170 1860 3410
2019-10-08 10:30 8.17 659 17900 (1971) 17 (1973) 1080 35 73 119 161 373 1050 1170 1860 3410
2019-10-08 09:30 8.17 659 17900 (1971) 17 (1973) 1080 35 73 119 161 373 1050 1170 1860 3410
2019-10-08 08:30 8.15 646 17900 (1971) 17 (1973) 1080 35 73 119 161 373 1050 1170 1860 3410
2019-10-08 07:30 8.16 652 17900 (1971) 17 (1973) 1080 35 73 119 161 373 1050 1170 1860 3410
2019-10-08 06:30 8.17 659 17900 (1971) 17 (1973) 1080 35 73 119 161 373 1050 1170 1860 3410
2019-10-08 05:30 8.18 665 17900 (1971) 17 (1973) 1080 35 73 119 161 373 1050 1170 1860 3410
2019-10-08 04:30 8.18 665 17900 (1971) 17 (1973) 1080 35 73 119 161 373 1050 1170 1860 3410
2019-10-08 03:30 8.19 671 17900 (1971) 17 (1973) 1080 35 73 119 161 373 1050 1170 1860 3410
2019-10-08 02:30 8.20 677 17900 (1971) 17 (1973) 1080 35 73 119 161 373 1050 1170 1860 3410
2019-10-08 01:30 8.21 684 17900 (1971) 17 (1973) 1080 35 73 119 161 373 1050 1170 1860 3410
2019-10-08 00:30 8.21 684 17900 (1971) 17 (1973) 1080 35 73 119 161 373 1050 1170 1860 3410
2019-10-07 23:30 8.21 684 10700 (1987) 16 (1973) 862 37 76 123 164 440 1030 1180 1860 2930
2019-10-07 22:30 8.22 690 10700 (1987) 16 (1973) 862 37 76 123 164 440 1030 1180 1860 2930
2019-10-07 21:30 8.23 696 10700 (1987) 16 (1973) 862 37 76 123 164 440 1030 1180 1860 2930
2019-10-07 20:30 8.24 702 10700 (1987) 16 (1973) 862 37 76 123 164 440 1030 1180 1860 2930
2019-10-07 19:30 8.25 709 10700 (1987) 16 (1973) 862 37 76 123 164 440 1030 1180 1860 2930
2019-10-07 18:30 8.26 715 10700 (1987) 16 (1973) 862 37 76 123 164 440 1030 1180 1860 2930
2019-10-07 17:30 8.28 728 10700 (1987) 16 (1973) 862 37 76 123 164 440 1030 1180 1860 2930
2019-10-07 16:30 8.27 721 10700 (1987) 16 (1973) 862 37 76 123 164 440 1030 1180 1860 2930
2019-10-07 15:30 8.28 728 10700 (1987) 16 (1973) 862 37 76 123 164 440 1030 1180 1860 2930
2019-10-07 14:30 8.29 734 10700 (1987) 16 (1973) 862 37 76 123 164 440 1030 1180 1860 2930
2019-10-07 13:30 8.26 715 10700 (1987) 16 (1973) 862 37 76 123 164 440 1030 1180 1860 2930
2019-10-07 12:30 8.28 728 10700 (1987) 16 (1973) 862 37 76 123 164 440 1030 1180 1860 2930
2019-10-07 11:30 8.29 734 10700 (1987) 16 (1973) 862 37 76 123 164 440 1030 1180 1860 2930
2019-10-07 10:30 8.29 734 10700 (1987) 16 (1973) 862 37 76 123 164 440 1030 1180 1860 2930
2019-10-07 09:30 8.28 728 10700 (1987) 16 (1973) 862 37 76 123 164 440 1030 1180 1860 2930
2019-10-07 08:30 8.32 753 10700 (1987) 16 (1973) 862 37 76 123 164 440 1030 1180 1860 2930
2019-10-07 07:30 8.32 753 10700 (1987) 16 (1973) 862 37 76 123 164 440 1030 1180 1860 2930
2019-10-07 06:30 8.32 753 10700 (1987) 16 (1973) 862 37 76 123 164 440 1030 1180 1860 2930
2019-10-07 05:30 8.32 753 10700 (1987) 16 (1973) 862 37 76 123 164 440 1030 1180 1860 2930
2019-10-07 04:30 8.33 759 10700 (1987) 16 (1973) 862 37 76 123 164 440 1030 1180 1860 2930
2019-10-07 03:30 8.33 759 10700 (1987) 16 (1973) 862 37 76 123 164 440 1030 1180 1860 2930
2019-10-07 02:30 8.34 766 10700 (1987) 16 (1973) 862 37 76 123 164 440 1030 1180 1860 2930
2019-10-07 01:30 8.32 753 10700 (1987) 16 (1973) 862 37 76 123 164 440 1030 1180 1860 2930
2019-10-07 00:30 8.34 766 10700 (1987) 16 (1973) 862 37 76 123 164 440 1030 1180 1860 2930

A total of 170 rows are displayed for years 1962 through 2018.

Trips for Washita River (Oklahoma), Dickson (07331000)

DateStartEndDistanceConditionDischargeHeightFishingDetails
Click for details2010-03-06 OK 1 US 377 Total trip distance: 9.0 miles9.0 Good 1410 11.57 None NoneNone Fillmore, Brian
Fillmore, Rebecca
Fillmore, Brian; Fillmore, Rebecca
No notes for this trip<i>No notes for this trip</i> USGS Gauge Data:
Dickson (07331000)
Discharge: 1410
Height: 11.57
<b>USGS Gauge Data:</b></br />Dickson (07331000)<br />Discharge: 1410<br />Height: 11.57
Source: FillmoreSource: Fillmore
Click for details2013-12-14 OK 1 US 377 Total trip distance: 9.0 miles9.0 Good 151 8.02 None NoneNone Fillmore, Brian
White, Aaron
Fillmore, Brian; White, Aaron
Duck hunting.Duck hunting. USGS Gauge Data:
Dickson (07331000)
Discharge: 151
Height: 8.02
<b>USGS Gauge Data:</b></br />Dickson (07331000)<br />Discharge: 151<br />Height: 8.02
Source: FillmoreSource: Fillmore
Click for details2014-01-26 OK 1 US 377 Total trip distance: 9.0 miles9.0 Good 122 None NoneNone Fillmore, Brian
Fillmore, Rebecca
Fillmore, Brian; Fillmore, Rebecca
Duck hunting.Duck hunting. USGS Gauge Data:
Dickson (07331000)
Discharge: 122
Height:
<b>USGS Gauge Data:</b></br />Dickson (07331000)<br />Discharge: 122<br />Height:
Source: FillmoreSource: Fillmore

A total of 3 rows are displayed.

Trip Summary for Washita River (Oklahoma), Dickson (07331000)

Miles27
Trips3
People3
Dates3
Years3
Months3
Rows3
Sources1

Condition Descriptions

Fishing Conditions

Fish Species

Notes

Classic Trip List

The classic River Trips application is still available for use. It is updated with the new system using a data retrofit. It is no longer maintained. The original River Trips application is no longer updated (as of 1 Dec 2016) but can be checked for errors or for the condition of the data before it was converted to the new system.